sensor_id;sensor_type;location;lat;lon;timestamp;temperature;humidity
3626;DHT22;1827;50.534;8.316;2024-03-02T00:00:51;1.00;1.00
3626;DHT22;1827;50.534;8.316;2024-03-02T00:03:17;0.90;1.00
3626;DHT22;1827;50.534;8.316;2024-03-02T00:05:48;0.50;1.00
3626;DHT22;1827;50.534;8.316;2024-03-02T00:08:26;0.50;41.90
3626;DHT22;1827;50.534;8.316;2024-03-02T00:10:52;0.40;99.90
3626;DHT22;1827;50.534;8.316;2024-03-02T00:13:22;0.50;1.00
3626;DHT22;1827;50.534;8.316;2024-03-02T00:15:55;0.60;1.00
3626;DHT22;1827;50.534;8.316;2024-03-02T00:18:33;0.60;1.00
3626;DHT22;1827;50.534;8.316;2024-03-02T00:21:00;0.60;1.00
3626;DHT22;1827;50.534;8.316;2024-03-02T00:23:33;0.40;1.00
3626;DHT22;1827;50.534;8.316;2024-03-02T00:26:00;0.40;99.30
3626;DHT22;1827;50.534;8.316;2024-03-02T00:28:33;0.50;99.90
3626;DHT22;1827;50.534;8.316;2024-03-02T00:31:12;0.70;99.90
3626;DHT22;1827;50.534;8.316;2024-03-02T00:33:42;0.60;99.90
3626;DHT22;1827;50.534;8.316;2024-03-02T00:36:10;0.60;99.90
3626;DHT22;1827;50.534;8.316;2024-03-02T00:38:46;0.50;98.30
3626;DHT22;1827;50.534;8.316;2024-03-02T00:41:21;0.40;45.90
3626;DHT22;1827;50.534;8.316;2024-03-02T00:44:04;0.40;8.10
3626;DHT22;1827;50.534;8.316;2024-03-02T00:46:35;0.30;1.00
3626;DHT22;1827;50.534;8.316;2024-03-02T00:49:03;0.30;6.40
3626;DHT22;1827;50.534;8.316;2024-03-02T00:51:33;0.30;89.10
3626;DHT22;1827;50.534;8.316;2024-03-02T00:54:01;0.30;92.80
3626;DHT22;1827;50.534;8.316;2024-03-02T00:56:30;0.20;99.90
3626;DHT22;1827;50.534;8.316;2024-03-02T00:58:56;0.30;99.90
3626;DHT22;1827;50.534;8.316;2024-03-02T01:01:22;0.20;99.90
3626;DHT22;1827;50.534;8.316;2024-03-02T01:03:48;0.50;99.90
3626;DHT22;1827;50.534;8.316;2024-03-02T01:06:17;0.50;99.90
3626;DHT22;1827;50.534;8.316;2024-03-02T01:08:43;0.40;99.90
3626;DHT22;1827;50.534;8.316;2024-03-02T01:11:09;0.40;99.90
3626;DHT22;1827;50.534;8.316;2024-03-02T01:13:35;0.30;1.00
3626;DHT22;1827;50.534;8.316;2024-03-02T01:16:01;0.60;1.00
3626;DHT22;1827;50.534;8.316;2024-03-02T01:18:28;0.60;1.00
3626;DHT22;1827;50.534;8.316;2024-03-02T01:20:53;0.80;1.00
3626;DHT22;1827;50.534;8.316;2024-03-02T01:23:22;0.80;1.00
3626;DHT22;1827;50.534;8.316;2024-03-02T01:25:48;0.80;1.00
3626;DHT22;1827;50.534;8.316;2024-03-02T01:28:14;0.90;77.30
3626;DHT22;1827;50.534;8.316;2024-03-02T01:30:40;0.90;1.00
3626;DHT22;1827;50.534;8.316;2024-03-02T01:33:06;1.00;99.90
3626;DHT22;1827;50.534;8.316;2024-03-02T01:35:32;0.80;99.90
3626;DHT22;1827;50.534;8.316;2024-03-02T01:37:58;0.70;99.90
3626;DHT22;1827;50.534;8.316;2024-03-02T01:40:24;0.70;99.90
3626;DHT22;1827;50.534;8.316;2024-03-02T01:42:54;0.60;1.00
3626;DHT22;1827;50.534;8.316;2024-03-02T01:45:21;0.60;1.00
3626;DHT22;1827;50.534;8.316;2024-03-02T01:47:47;0.60;99.90
3626;DHT22;1827;50.534;8.316;2024-03-02T01:50:13;0.70;99.90
3626;DHT22;1827;50.534;8.316;2024-03-02T01:52:39;0.60;1.00
3626;DHT22;1827;50.534;8.316;2024-03-02T01:55:05;0.60;1.00
3626;DHT22;1827;50.534;8.316;2024-03-02T01:57:32;0.60;1.00
3626;DHT22;1827;50.534;8.316;2024-03-02T01:59:58;0.50;73.20
3626;DHT22;1827;50.534;8.316;2024-03-02T02:02:25;0.40;99.90
3626;DHT22;1827;50.534;8.316;2024-03-02T02:04:51;0.30;99.90
3626;DHT22;1827;50.534;8.316;2024-03-02T02:07:16;0.30;1.00
3626;DHT22;1827;50.534;8.316;2024-03-02T02:09:42;0.40;1.00
3626;DHT22;1827;50.534;8.316;2024-03-02T02:12:11;0.30;1.00
3626;DHT22;1827;50.534;8.316;2024-03-02T02:14:37;0.30;99.90
3626;DHT22;1827;50.534;8.316;2024-03-02T02:17:04;0.30;99.90
3626;DHT22;1827;50.534;8.316;2024-03-02T02:19:30;0.30;1.00
3626;DHT22;1827;50.534;8.316;2024-03-02T02:21:55;0.30;1.00
3626;DHT22;1827;50.534;8.316;2024-03-02T02:24:21;0.40;52.80
3626;DHT22;1827;50.534;8.316;2024-03-02T02:26:47;0.30;40.00
3626;DHT22;1827;50.534;8.316;2024-03-02T02:29:12;0.40;99.90
3626;DHT22;1827;50.534;8.316;2024-03-02T02:31:39;0.30;99.90
3626;DHT22;1827;50.534;8.316;2024-03-02T02:34:05;0.30;1.00
3626;DHT22;1827;50.534;8.316;2024-03-02T02:36:39;0.30;1.00
3626;DHT22;1827;50.534;8.316;2024-03-02T02:39:07;0.30;36.00
3626;DHT22;1827;50.534;8.316;2024-03-02T02:41:34;0.30;99.90
3626;DHT22;1827;50.534;8.316;2024-03-02T02:44:00;0.20;99.90
3626;DHT22;1827;50.534;8.316;2024-03-02T02:46:25;0.30;99.90
3626;DHT22;1827;50.534;8.316;2024-03-02T02:48:51;0.30;1.00
3626;DHT22;1827;50.534;8.316;2024-03-02T02:51:19;0.40;1.00
3626;DHT22;1827;50.534;8.316;2024-03-02T02:53:45;0.40;1.40
3626;DHT22;1827;50.534;8.316;2024-03-02T02:56:11;0.40;92.30
3626;DHT22;1827;50.534;8.316;2024-03-02T02:58:39;0.30;1.00
3626;DHT22;1827;50.534;8.316;2024-03-02T03:01:05;0.30;1.00
3626;DHT22;1827;50.534;8.316;2024-03-02T03:03:34;0.30;1.00
3626;DHT22;1827;50.534;8.316;2024-03-02T03:06:00;0.30;1.00
3626;DHT22;1827;50.534;8.316;2024-03-02T03:08:25;0.40;1.00
3626;DHT22;1827;50.534;8.316;2024-03-02T03:10:52;0.50;99.90
3626;DHT22;1827;50.534;8.316;2024-03-02T03:13:18;0.60;99.90
3626;DHT22;1827;50.534;8.316;2024-03-02T03:15:44;0.60;99.90
3626;DHT22;1827;50.534;8.316;2024-03-02T03:18:11;0.60;99.90
3626;DHT22;1827;50.534;8.316;2024-03-02T03:20:37;0.50;1.00
3626;DHT22;1827;50.534;8.316;2024-03-02T03:23:03;0.50;1.00
3626;DHT22;1827;50.534;8.316;2024-03-02T03:25:30;0.30;99.90
3626;DHT22;1827;50.534;8.316;2024-03-02T03:27:56;0.40;99.90
3626;DHT22;1827;50.534;8.316;2024-03-02T03:30:23;0.20;99.90
3626;DHT22;1827;50.534;8.316;2024-03-02T03:32:49;0.20;99.90
3626;DHT22;1827;50.534;8.316;2024-03-02T03:35:15;0.20;99.90
3626;DHT22;1827;50.534;8.316;2024-03-02T03:37:41;0.20;99.90
3626;DHT22;1827;50.534;8.316;2024-03-02T03:40:09;0.20;99.90
3626;DHT22;1827;50.534;8.316;2024-03-02T03:42:38;0.30;1.00
3626;DHT22;1827;50.534;8.316;2024-03-02T03:45:06;0.30;1.00
3626;DHT22;1827;50.534;8.316;2024-03-02T03:47:32;0.30;1.00
3626;DHT22;1827;50.534;8.316;2024-03-02T03:49:59;0.30;99.90
3626;DHT22;1827;50.534;8.316;2024-03-02T03:52:25;0.20;99.90
3626;DHT22;1827;50.534;8.316;2024-03-02T03:54:51;0.10;1.00
3626;DHT22;1827;50.534;8.316;2024-03-02T03:57:18;0.10;1.00
3626;DHT22;1827;50.534;8.316;2024-03-02T03:59:44;0.10;1.00
3626;DHT22;1827;50.534;8.316;2024-03-02T04:02:11;0.10;1.00
3626;DHT22;1827;50.534;8.316;2024-03-02T04:04:38;0.10;1.00
3626;DHT22;1827;50.534;8.316;2024-03-02T04:07:04;0.00;1.00
3626;DHT22;1827;50.534;8.316;2024-03-02T04:09:32;-0.10;1.00
3626;DHT22;1827;50.534;8.316;2024-03-02T04:11:58;-0.20;1.00
3626;DHT22;1827;50.534;8.316;2024-03-02T04:14:24;-0.30;22.20
3626;DHT22;1827;50.534;8.316;2024-03-02T04:16:50;-0.10;99.90
3626;DHT22;1827;50.534;8.316;2024-03-02T04:19:15;-0.20;1.00
3626;DHT22;1827;50.534;8.316;2024-03-02T04:21:41;-0.10;1.00
3626;DHT22;1827;50.534;8.316;2024-03-02T04:24:07;-0.10;1.00
3626;DHT22;1827;50.534;8.316;2024-03-02T04:26:33;0.00;99.90
3626;DHT22;1827;50.534;8.316;2024-03-02T04:28:59;0.10;99.90
3626;DHT22;1827;50.534;8.316;2024-03-02T04:31:25;0.10;99.90
3626;DHT22;1827;50.534;8.316;2024-03-02T04:33:52;-0.10;1.00
3626;DHT22;1827;50.534;8.316;2024-03-02T04:36:19;-0.10;1.00
3626;DHT22;1827;50.534;8.316;2024-03-02T04:38:47;-0.30;99.90
3626;DHT22;1827;50.534;8.316;2024-03-02T04:41:13;-0.30;99.90
3626;DHT22;1827;50.534;8.316;2024-03-02T04:43:39;-0.30;99.90
3626;DHT22;1827;50.534;8.316;2024-03-02T04:46:05;-0.40;1.00
3626;DHT22;1827;50.534;8.316;2024-03-02T04:48:33;-0.40;1.00
3626;DHT22;1827;50.534;8.316;2024-03-02T04:50:59;-0.40;1.00
3626;DHT22;1827;50.534;8.316;2024-03-02T04:53:26;-0.50;1.00
3626;DHT22;1827;50.534;8.316;2024-03-02T04:55:52;-0.50;37.20
3626;DHT22;1827;50.534;8.316;2024-03-02T04:58:35;-0.50;99.90
3626;DHT22;1827;50.534;8.316;2024-03-02T05:01:01;-0.50;99.90
3626;DHT22;1827;50.534;8.316;2024-03-02T05:03:28;-0.50;99.90
3626;DHT22;1827;50.534;8.316;2024-03-02T05:05:54;-0.50;99.90
3626;DHT22;1827;50.534;8.316;2024-03-02T05:08:21;-0.60;99.90
3626;DHT22;1827;50.534;8.316;2024-03-02T05:10:48;-0.40;1.00
3626;DHT22;1827;50.534;8.316;2024-03-02T05:13:14;-0.50;99.90
3626;DHT22;1827;50.534;8.316;2024-03-02T05:15:40;-0.60;99.90
3626;DHT22;1827;50.534;8.316;2024-03-02T05:18:06;-0.60;33.20
3626;DHT22;1827;50.534;8.316;2024-03-02T05:20:33;-0.70;1.00
3626;DHT22;1827;50.534;8.316;2024-03-02T05:22:59;-0.60;1.00
3626;DHT22;1827;50.534;8.316;2024-03-02T05:25:27;-0.60;1.00
3626;DHT22;1827;50.534;8.316;2024-03-02T05:27:54;-0.70;1.00
3626;DHT22;1827;50.534;8.316;2024-03-02T05:30:20;-0.70;1.00
3626;DHT22;1827;50.534;8.316;2024-03-02T05:32:46;-0.70;1.00
3626;DHT22;1827;50.534;8.316;2024-03-02T05:35:12;-0.70;1.00
3626;DHT22;1827;50.534;8.316;2024-03-02T05:37:38;-0.80;1.00
3626;DHT22;1827;50.534;8.316;2024-03-02T05:40:05;-0.80;1.00
3626;DHT22;1827;50.534;8.316;2024-03-02T05:42:31;-1.00;1.00
3626;DHT22;1827;50.534;8.316;2024-03-02T05:44:57;-0.90;52.00
3626;DHT22;1827;50.534;8.316;2024-03-02T05:47:23;-0.80;99.90
3626;DHT22;1827;50.534;8.316;2024-03-02T05:49:49;-1.00;9.70
3626;DHT22;1827;50.534;8.316;2024-03-02T05:52:15;-1.00;1.00
3626;DHT22;1827;50.534;8.316;2024-03-02T05:54:43;-1.00;99.90
3626;DHT22;1827;50.534;8.316;2024-03-02T05:57:09;-1.00;99.90
3626;DHT22;1827;50.534;8.316;2024-03-02T05:59:54;-1.00;99.90
3626;DHT22;1827;50.534;8.316;2024-03-02T06:02:24;-0.90;99.90
3626;DHT22;1827;50.534;8.316;2024-03-02T06:04:49;-0.90;99.90
3626;DHT22;1827;50.534;8.316;2024-03-02T06:07:15;-0.90;99.90
3626;DHT22;1827;50.534;8.316;2024-03-02T06:09:41;-0.90;1.00
3626;DHT22;1827;50.534;8.316;2024-03-02T06:12:08;-0.80;1.00
3626;DHT22;1827;50.534;8.316;2024-03-02T06:14:36;-0.70;1.00
3626;DHT22;1827;50.534;8.316;2024-03-02T06:17:02;-0.60;99.90
3626;DHT22;1827;50.534;8.316;2024-03-02T06:19:29;-0.80;1.00
3626;DHT22;1827;50.534;8.316;2024-03-02T06:21:56;-0.60;99.90
3626;DHT22;1827;50.534;8.316;2024-03-02T06:24:25;-0.70;99.90
3626;DHT22;1827;50.534;8.316;2024-03-02T06:26:54;-0.50;1.00
3626;DHT22;1827;50.534;8.316;2024-03-02T06:29:20;-0.30;1.00
3626;DHT22;1827;50.534;8.316;2024-03-02T06:31:50;-0.30;1.00
3626;DHT22;1827;50.534;8.316;2024-03-02T06:34:16;-0.30;1.00
3626;DHT22;1827;50.534;8.316;2024-03-02T06:36:45;-0.40;1.00
3626;DHT22;1827;50.534;8.316;2024-03-02T06:39:11;-0.40;1.00
3626;DHT22;1827;50.534;8.316;2024-03-02T06:41:45;-0.40;3.50
3626;DHT22;1827;50.534;8.316;2024-03-02T06:44:17;-0.30;99.90
3626;DHT22;1827;50.534;8.316;2024-03-02T06:46:43;-0.30;99.90
3626;DHT22;1827;50.534;8.316;2024-03-02T06:49:13;-0.20;99.90
3626;DHT22;1827;50.534;8.316;2024-03-02T06:51:39;0.00;99.90
3626;DHT22;1827;50.534;8.316;2024-03-02T06:54:06;0.00;99.90
3626;DHT22;1827;50.534;8.316;2024-03-02T06:56:32;0.10;99.90
3626;DHT22;1827;50.534;8.316;2024-03-02T06:58:59;0.20;99.90
3626;DHT22;1827;50.534;8.316;2024-03-02T07:01:25;0.10;99.90
3626;DHT22;1827;50.534;8.316;2024-03-02T07:03:52;0.10;99.90
3626;DHT22;1827;50.534;8.316;2024-03-02T07:06:18;0.00;99.90
3626;DHT22;1827;50.534;8.316;2024-03-02T07:08:44;0.10;99.90
3626;DHT22;1827;50.534;8.316;2024-03-02T07:11:10;0.20;99.90
3626;DHT22;1827;50.534;8.316;2024-03-02T07:13:36;0.40;99.90
3626;DHT22;1827;50.534;8.316;2024-03-02T07:16:02;0.60;99.90
3626;DHT22;1827;50.534;8.316;2024-03-02T07:18:29;0.80;99.90
3626;DHT22;1827;50.534;8.316;2024-03-02T07:20:55;0.90;99.90
3626;DHT22;1827;50.534;8.316;2024-03-02T07:23:21;1.20;99.90
3626;DHT22;1827;50.534;8.316;2024-03-02T07:25:51;1.10;99.90
3626;DHT22;1827;50.534;8.316;2024-03-02T07:28:17;1.10;99.90
3626;DHT22;1827;50.534;8.316;2024-03-02T07:30:43;1.20;99.90
3626;DHT22;1827;50.534;8.316;2024-03-02T07:33:09;1.20;99.90
3626;DHT22;1827;50.534;8.316;2024-03-02T07:35:35;1.30;99.90
3626;DHT22;1827;50.534;8.316;2024-03-02T07:38:01;1.30;99.90
3626;DHT22;1827;50.534;8.316;2024-03-02T07:40:29;1.50;99.90
3626;DHT22;1827;50.534;8.316;2024-03-02T07:42:55;1.70;99.90
3626;DHT22;1827;50.534;8.316;2024-03-02T07:45:23;2.10;99.90
3626;DHT22;1827;50.534;8.316;2024-03-02T07:47:49;2.10;99.90
3626;DHT22;1827;50.534;8.316;2024-03-02T07:50:16;2.30;99.90
3626;DHT22;1827;50.534;8.316;2024-03-02T07:52:44;2.20;99.90
3626;DHT22;1827;50.534;8.316;2024-03-02T07:55:11;2.00;99.90
3626;DHT22;1827;50.534;8.316;2024-03-02T07:57:37;2.30;99.90
3626;DHT22;1827;50.534;8.316;2024-03-02T08:00:04;2.60;99.90
3626;DHT22;1827;50.534;8.316;2024-03-02T08:02:37;2.80;99.90
3626;DHT22;1827;50.534;8.316;2024-03-02T08:05:04;2.50;99.90
3626;DHT22;1827;50.534;8.316;2024-03-02T08:07:30;2.40;99.90
3626;DHT22;1827;50.534;8.316;2024-03-02T08:09:57;2.60;99.90
3626;DHT22;1827;50.534;8.316;2024-03-02T08:12:23;2.90;99.90
3626;DHT22;1827;50.534;8.316;2024-03-02T08:14:49;3.10;99.90
3626;DHT22;1827;50.534;8.316;2024-03-02T08:17:15;3.30;99.90
3626;DHT22;1827;50.534;8.316;2024-03-02T08:19:41;3.40;99.90
3626;DHT22;1827;50.534;8.316;2024-03-02T08:22:08;3.50;99.90
3626;DHT22;1827;50.534;8.316;2024-03-02T08:24:34;4.20;99.90
3626;DHT22;1827;50.534;8.316;2024-03-02T08:27:01;4.70;99.90
3626;DHT22;1827;50.534;8.316;2024-03-02T08:29:27;5.10;99.90
3626;DHT22;1827;50.534;8.316;2024-03-02T08:31:53;5.10;99.90
3626;DHT22;1827;50.534;8.316;2024-03-02T08:34:19;5.30;99.90
3626;DHT22;1827;50.534;8.316;2024-03-02T08:36:49;5.30;99.90
3626;DHT22;1827;50.534;8.316;2024-03-02T08:39:24;5.00;99.90
3626;DHT22;1827;50.534;8.316;2024-03-02T08:41:49;4.90;99.90
3626;DHT22;1827;50.534;8.316;2024-03-02T08:44:17;5.30;99.90
3626;DHT22;1827;50.534;8.316;2024-03-02T08:46:43;5.20;99.90
3626;DHT22;1827;50.534;8.316;2024-03-02T08:49:10;5.30;99.90
3626;DHT22;1827;50.534;8.316;2024-03-02T08:51:36;5.70;99.90
3626;DHT22;1827;50.534;8.316;2024-03-02T08:54:02;6.00;99.90
3626;DHT22;1827;50.534;8.316;2024-03-02T08:56:30;5.50;1.00
3626;DHT22;1827;50.534;8.316;2024-03-02T08:58:56;5.00;99.90
3626;DHT22;1827;50.534;8.316;2024-03-02T09:01:25;5.20;1.00
3626;DHT22;1827;50.534;8.316;2024-03-02T09:03:52;5.30;1.00
3626;DHT22;1827;50.534;8.316;2024-03-02T09:06:18;5.10;1.00
3626;DHT22;1827;50.534;8.316;2024-03-02T09:08:46;5.80;1.00
3626;DHT22;1827;50.534;8.316;2024-03-02T09:11:12;6.00;24.90
3626;DHT22;1827;50.534;8.316;2024-03-02T09:13:38;6.20;1.00
3626;DHT22;1827;50.534;8.316;2024-03-02T09:16:05;6.20;99.90
3626;DHT22;1827;50.534;8.316;2024-03-02T09:18:31;6.30;1.00
3626;DHT22;1827;50.534;8.316;2024-03-02T09:21:01;6.60;1.00
3626;DHT22;1827;50.534;8.316;2024-03-02T09:23:27;7.00;99.90
3626;DHT22;1827;50.534;8.316;2024-03-02T09:25:53;7.70;1.00
3626;DHT22;1827;50.534;8.316;2024-03-02T09:28:19;8.00;1.00
3626;DHT22;1827;50.534;8.316;2024-03-02T09:30:45;8.00;1.00
3626;DHT22;1827;50.534;8.316;2024-03-02T09:33:11;8.10;1.00
3626;DHT22;1827;50.534;8.316;2024-03-02T09:35:37;8.40;1.00
3626;DHT22;1827;50.534;8.316;2024-03-02T09:38:03;7.90;99.90
3626;DHT22;1827;50.534;8.316;2024-03-02T09:40:29;7.70;1.00
3626;DHT22;1827;50.534;8.316;2024-03-02T09:42:58;7.80;1.00
3626;DHT22;1827;50.534;8.316;2024-03-02T09:45:25;7.80;99.90
3626;DHT22;1827;50.534;8.316;2024-03-02T09:47:52;8.00;8.90
3626;DHT22;1827;50.534;8.316;2024-03-02T09:50:21;7.70;1.00
3626;DHT22;1827;50.534;8.316;2024-03-02T09:52:49;7.70;99.90
3626;DHT22;1827;50.534;8.316;2024-03-02T09:55:16;8.20;99.90
3626;DHT22;1827;50.534;8.316;2024-03-02T09:57:43;8.10;1.00
3626;DHT22;1827;50.534;8.316;2024-03-02T10:00:11;8.30;1.00
3626;DHT22;1827;50.534;8.316;2024-03-02T10:02:43;8.70;1.00
3626;DHT22;1827;50.534;8.316;2024-03-02T10:05:10;8.50;99.90
3626;DHT22;1827;50.534;8.316;2024-03-02T10:07:37;8.60;99.90
3626;DHT22;1827;50.534;8.316;2024-03-02T10:10:13;9.10;1.00
3626;DHT22;1827;50.534;8.316;2024-03-02T10:12:40;8.80;1.00
3626;DHT22;1827;50.534;8.316;2024-03-02T10:15:06;9.00;1.00
3626;DHT22;1827;50.534;8.316;2024-03-02T10:17:34;9.10;99.90
3626;DHT22;1827;50.534;8.316;2024-03-02T10:20:21;9.70;99.90
3626;DHT22;1827;50.534;8.316;2024-03-02T10:22:47;9.30;99.90
3626;DHT22;1827;50.534;8.316;2024-03-02T10:25:31;9.60;20.40
3626;DHT22;1827;50.534;8.316;2024-03-02T10:28:01;9.80;1.00
3626;DHT22;1827;50.534;8.316;2024-03-02T10:30:28;9.80;1.00
3626;DHT22;1827;50.534;8.316;2024-03-02T10:32:55;9.90;1.00
3626;DHT22;1827;50.534;8.316;2024-03-02T10:35:24;10.10;1.00
3626;DHT22;1827;50.534;8.316;2024-03-02T10:37:52;10.30;1.00
3626;DHT22;1827;50.534;8.316;2024-03-02T10:40:21;9.90;99.90
3626;DHT22;1827;50.534;8.316;2024-03-02T10:42:51;10.10;99.90
3626;DHT22;1827;50.534;8.316;2024-03-02T10:45:19;10.50;99.90
3626;DHT22;1827;50.534;8.316;2024-03-02T10:47:47;10.90;99.90
3626;DHT22;1827;50.534;8.316;2024-03-02T10:50:13;11.00;99.90
3626;DHT22;1827;50.534;8.316;2024-03-02T10:52:39;11.10;99.90
3626;DHT22;1827;50.534;8.316;2024-03-02T10:55:09;11.40;99.90
3626;DHT22;1827;50.534;8.316;2024-03-02T10:57:52;10.90;63.20
3626;DHT22;1827;50.534;8.316;2024-03-02T11:00:24;10.90;4.50
3626;DHT22;1827;50.534;8.316;2024-03-02T11:03:21;10.80;1.00
3626;DHT22;1827;50.534;8.316;2024-03-02T11:05:47;11.40;1.00
3626;DHT22;1827;50.534;8.316;2024-03-02T11:08:17;10.60;1.00
3626;DHT22;1827;50.534;8.316;2024-03-02T11:10:53;10.70;1.00
3626;DHT22;1827;50.534;8.316;2024-03-02T11:13:27;11.20;1.00
3626;DHT22;1827;50.534;8.316;2024-03-02T11:16:02;11.70;1.00
3626;DHT22;1827;50.534;8.316;2024-03-02T11:18:29;11.70;1.00
3626;DHT22;1827;50.534;8.316;2024-03-02T11:20:56;11.30;1.00
3626;DHT22;1827;50.534;8.316;2024-03-02T11:23:32;11.30;1.00
3626;DHT22;1827;50.534;8.316;2024-03-02T11:26:21;11.70;1.00
3626;DHT22;1827;50.534;8.316;2024-03-02T11:28:47;12.10;1.00
3626;DHT22;1827;50.534;8.316;2024-03-02T11:31:15;12.20;1.00
3626;DHT22;1827;50.534;8.316;2024-03-02T11:33:41;12.00;1.00
3626;DHT22;1827;50.534;8.316;2024-03-02T11:36:09;12.70;1.00
3626;DHT22;1827;50.534;8.316;2024-03-02T11:38:35;12.10;1.00
3626;DHT22;1827;50.534;8.316;2024-03-02T11:41:03;11.80;1.00
3626;DHT22;1827;50.534;8.316;2024-03-02T11:43:32;12.00;1.00
3626;DHT22;1827;50.534;8.316;2024-03-02T11:46:00;12.00;1.00
3626;DHT22;1827;50.534;8.316;2024-03-02T11:48:30;12.00;1.00
3626;DHT22;1827;50.534;8.316;2024-03-02T11:50:59;12.10;1.00
3626;DHT22;1827;50.534;8.316;2024-03-02T11:53:27;12.30;1.00
3626;DHT22;1827;50.534;8.316;2024-03-02T11:55:58;12.10;1.00
3626;DHT22;1827;50.534;8.316;2024-03-02T11:58:24;12.70;1.00
3626;DHT22;1827;50.534;8.316;2024-03-02T12:00:54;13.20;1.00
3626;DHT22;1827;50.534;8.316;2024-03-02T12:03:22;13.40;1.00
3626;DHT22;1827;50.534;8.316;2024-03-02T12:05:49;13.40;1.00
3626;DHT22;1827;50.534;8.316;2024-03-02T12:08:16;13.60;1.00
3626;DHT22;1827;50.534;8.316;2024-03-02T12:10:43;13.70;1.00
3626;DHT22;1827;50.534;8.316;2024-03-02T12:13:10;13.90;1.00
3626;DHT22;1827;50.534;8.316;2024-03-02T12:15:38;14.50;1.00
3626;DHT22;1827;50.534;8.316;2024-03-02T12:18:04;14.50;1.00
3626;DHT22;1827;50.534;8.316;2024-03-02T12:20:33;15.00;1.00
3626;DHT22;1827;50.534;8.316;2024-03-02T12:23:01;15.30;1.00
3626;DHT22;1827;50.534;8.316;2024-03-02T12:25:27;15.40;1.00
3626;DHT22;1827;50.534;8.316;2024-03-02T12:27:58;15.10;1.00
3626;DHT22;1827;50.534;8.316;2024-03-02T12:30:27;15.20;1.00
3626;DHT22;1827;50.534;8.316;2024-03-02T12:32:54;15.40;1.00
3626;DHT22;1827;50.534;8.316;2024-03-02T12:35:20;15.40;1.00
3626;DHT22;1827;50.534;8.316;2024-03-02T12:37:51;15.30;1.00
3626;DHT22;1827;50.534;8.316;2024-03-02T12:40:18;15.40;1.00
3626;DHT22;1827;50.534;8.316;2024-03-02T12:42:45;15.10;1.00
3626;DHT22;1827;50.534;8.316;2024-03-02T12:45:13;14.90;1.00
3626;DHT22;1827;50.534;8.316;2024-03-02T12:47:41;15.30;1.00
3626;DHT22;1827;50.534;8.316;2024-03-02T12:50:08;15.40;1.00
3626;DHT22;1827;50.534;8.316;2024-03-02T12:52:34;15.50;1.00
3626;DHT22;1827;50.534;8.316;2024-03-02T12:55:05;15.70;1.00
3626;DHT22;1827;50.534;8.316;2024-03-02T12:57:32;15.80;1.00
3626;DHT22;1827;50.534;8.316;2024-03-02T13:00:05;15.80;1.00
3626;DHT22;1827;50.534;8.316;2024-03-02T13:02:43;15.30;1.00
3626;DHT22;1827;50.534;8.316;2024-03-02T13:05:09;15.40;1.00
3626;DHT22;1827;50.534;8.316;2024-03-02T13:07:40;15.80;1.00
3626;DHT22;1827;50.534;8.316;2024-03-02T13:10:07;15.60;1.00
3626;DHT22;1827;50.534;8.316;2024-03-02T13:12:36;15.60;1.00
3626;DHT22;1827;50.534;8.316;2024-03-02T13:15:03;15.80;1.00
3626;DHT22;1827;50.534;8.316;2024-03-02T13:17:29;15.70;1.00
3626;DHT22;1827;50.534;8.316;2024-03-02T13:19:59;15.90;1.00
3626;DHT22;1827;50.534;8.316;2024-03-02T13:22:26;15.60;1.00
3626;DHT22;1827;50.534;8.316;2024-03-02T13:24:53;15.30;1.00
3626;DHT22;1827;50.534;8.316;2024-03-02T13:27:22;15.60;1.00
3626;DHT22;1827;50.534;8.316;2024-03-02T13:29:48;15.70;1.00
3626;DHT22;1827;50.534;8.316;2024-03-02T13:32:15;15.70;1.00
3626;DHT22;1827;50.534;8.316;2024-03-02T13:34:41;15.60;1.00
3626;DHT22;1827;50.534;8.316;2024-03-02T13:37:09;15.70;1.00
3626;DHT22;1827;50.534;8.316;2024-03-02T13:39:35;15.80;1.00
3626;DHT22;1827;50.534;8.316;2024-03-02T13:42:11;15.30;1.00
3626;DHT22;1827;50.534;8.316;2024-03-02T13:44:42;15.40;1.00
3626;DHT22;1827;50.534;8.316;2024-03-02T13:47:09;15.30;1.00
3626;DHT22;1827;50.534;8.316;2024-03-02T13:49:35;15.30;1.00
3626;DHT22;1827;50.534;8.316;2024-03-02T13:52:06;15.10;1.00
3626;DHT22;1827;50.534;8.316;2024-03-02T13:54:46;15.00;1.00
3626;DHT22;1827;50.534;8.316;2024-03-02T13:57:12;15.10;1.00
3626;DHT22;1827;50.534;8.316;2024-03-02T13:59:40;15.30;1.00
3626;DHT22;1827;50.534;8.316;2024-03-02T14:02:06;15.30;1.00
3626;DHT22;1827;50.534;8.316;2024-03-02T14:04:36;14.90;1.00
3626;DHT22;1827;50.534;8.316;2024-03-02T14:07:02;15.10;1.00
3626;DHT22;1827;50.534;8.316;2024-03-02T14:09:29;15.30;1.00
3626;DHT22;1827;50.534;8.316;2024-03-02T14:11:56;15.00;1.00
3626;DHT22;1827;50.534;8.316;2024-03-02T14:14:22;15.30;1.00
3626;DHT22;1827;50.534;8.316;2024-03-02T14:16:48;15.50;1.00
3626;DHT22;1827;50.534;8.316;2024-03-02T14:19:14;15.20;1.00
3626;DHT22;1827;50.534;8.316;2024-03-02T14:21:41;15.00;1.00
3626;DHT22;1827;50.534;8.316;2024-03-02T14:24:07;14.90;1.00
3626;DHT22;1827;50.534;8.316;2024-03-02T14:26:33;14.90;1.00
3626;DHT22;1827;50.534;8.316;2024-03-02T14:29:00;15.00;1.00
3626;DHT22;1827;50.534;8.316;2024-03-02T14:31:29;15.00;1.00
3626;DHT22;1827;50.534;8.316;2024-03-02T14:33:55;14.80;1.00
3626;DHT22;1827;50.534;8.316;2024-03-02T14:36:21;14.70;1.00
3626;DHT22;1827;50.534;8.316;2024-03-02T14:38:47;14.10;1.00
3626;DHT22;1827;50.534;8.316;2024-03-02T14:41:13;14.40;1.00
3626;DHT22;1827;50.534;8.316;2024-03-02T14:43:43;14.40;1.00
3626;DHT22;1827;50.534;8.316;2024-03-02T14:46:09;14.40;1.00
3626;DHT22;1827;50.534;8.316;2024-03-02T14:48:36;14.30;1.00
3626;DHT22;1827;50.534;8.316;2024-03-02T14:51:04;14.30;1.00
3626;DHT22;1827;50.534;8.316;2024-03-02T14:53:30;14.20;1.00
3626;DHT22;1827;50.534;8.316;2024-03-02T14:55:56;14.10;1.00
3626;DHT22;1827;50.534;8.316;2024-03-02T14:58:23;14.10;1.00
3626;DHT22;1827;50.534;8.316;2024-03-02T15:00:51;13.80;1.00
3626;DHT22;1827;50.534;8.316;2024-03-02T15:03:17;13.90;1.00
3626;DHT22;1827;50.534;8.316;2024-03-02T15:05:43;13.70;1.00
3626;DHT22;1827;50.534;8.316;2024-03-02T15:08:10;13.50;1.00
3626;DHT22;1827;50.534;8.316;2024-03-02T15:10:36;13.60;1.00
3626;DHT22;1827;50.534;8.316;2024-03-02T15:13:02;13.80;1.00
3626;DHT22;1827;50.534;8.316;2024-03-02T15:15:28;13.80;1.00
3626;DHT22;1827;50.534;8.316;2024-03-02T15:17:54;13.80;1.00
3626;DHT22;1827;50.534;8.316;2024-03-02T15:20:20;13.70;1.00
3626;DHT22;1827;50.534;8.316;2024-03-02T15:22:47;13.80;1.00
3626;DHT22;1827;50.534;8.316;2024-03-02T15:25:13;13.90;1.00
3626;DHT22;1827;50.534;8.316;2024-03-02T15:27:42;13.80;1.00
3626;DHT22;1827;50.534;8.316;2024-03-02T15:30:10;13.80;1.00
3626;DHT22;1827;50.534;8.316;2024-03-02T15:32:36;13.60;1.00
3626;DHT22;1827;50.534;8.316;2024-03-02T15:35:05;13.60;1.00
3626;DHT22;1827;50.534;8.316;2024-03-02T15:37:31;13.50;1.00
3626;DHT22;1827;50.534;8.316;2024-03-02T15:39:57;13.50;1.00
3626;DHT22;1827;50.534;8.316;2024-03-02T15:42:34;13.50;1.00
3626;DHT22;1827;50.534;8.316;2024-03-02T15:45:01;13.40;1.00
3626;DHT22;1827;50.534;8.316;2024-03-02T15:47:27;13.50;1.00
3626;DHT22;1827;50.534;8.316;2024-03-02T15:49:54;13.40;1.00
3626;DHT22;1827;50.534;8.316;2024-03-02T15:52:20;13.40;1.00
3626;DHT22;1827;50.534;8.316;2024-03-02T15:54:51;13.40;1.00
3626;DHT22;1827;50.534;8.316;2024-03-02T15:57:24;13.40;1.00
3626;DHT22;1827;50.534;8.316;2024-03-02T15:59:50;13.10;1.00
3626;DHT22;1827;50.534;8.316;2024-03-02T16:02:16;13.20;1.00
3626;DHT22;1827;50.534;8.316;2024-03-02T16:04:42;13.30;1.00
3626;DHT22;1827;50.534;8.316;2024-03-02T16:07:08;13.30;1.00
3626;DHT22;1827;50.534;8.316;2024-03-02T16:09:35;13.30;1.00
3626;DHT22;1827;50.534;8.316;2024-03-02T16:12:01;13.20;1.00
3626;DHT22;1827;50.534;8.316;2024-03-02T16:14:28;13.10;1.00
3626;DHT22;1827;50.534;8.316;2024-03-02T16:16:54;13.10;1.00
3626;DHT22;1827;50.534;8.316;2024-03-02T16:19:21;12.80;1.00
3626;DHT22;1827;50.534;8.316;2024-03-02T16:21:47;12.70;1.00